Angler Guide Weather for Timmins -
Timmins, Ontario Current Weather Conditions
Enter your "Place, State", US Zip Code or ICAO:  
Forecast Information Radar Information
Timmins, Ontario, Canada  Lat: 48.55N, Lon: 81.37W
ICAO Used: CYYU
Current Conditions
Updated:
Sun & Moon Information:
Temp: N/A
Humidity: N/A
Wind Speed: N/A
Barometer: N/A
Dewpoint: N/A
Heat Index: N/A
Wind Chill: N/A
Civil Twilight: 7:34 AM EST
Moonrise: 7:18 AM EST Moon Phase:
New Moon
New Moon
Moonset: 4:32 PM EST
Sunrise: 8:11 AM EST
Sunset: 4:30 PM EST
Civil Twilight: 5:06 PM EST
Forecast for Timmins, ON:
(Forecast based on TAF for )
0239 PM EST MON NOV 06 2006
  
AFTERNOONEVENINGOVERNIGHT
OVERCASTOVERCASTLIGHT RAIN
OvercastOvercastLight
Rain
TAF based forecast:
Dated: 0239 PM EST MON NOV 06 2006
Afternoon...Overcast with winds from the south south east at 14 mph.
Evening...Overcast with winds from the south south east at 14 mph. Then turning overcast with winds from the south south east at 14 mph.
Overnight...Turning overcast with winds from the south south east at 14 mph. Then turning overcast with light rain and mist with winds from the south west at 15 mph.
Original Encoded TAF:
Dated: 0239 PM EST MON NOV 06 2006
2006/11/06 19:39
CYYU 061939Z 062008 20012KT P6SM OVC090 FM0000Z 20012KT P6SM OVC020 FM0600Z 21013KT 5SM -RA BR OVC015=




Powered by Angler Guide.com
Copyright 2007, all rights reserved.